createdAt,value
2022-11-12T00:00:03.905Z,12.35
2022-11-12T00:02:30.203Z,13.65
2022-11-12T00:04:56.479Z,13.00
2022-11-12T00:07:22.752Z,13.60
2022-11-12T00:09:49.017Z,12.63
2022-11-12T00:12:15.303Z,15.77
2022-11-12T00:14:41.569Z,13.23
2022-11-12T00:17:07.840Z,13.57
2022-11-12T00:19:34.095Z,13.60
2022-11-12T00:22:00.424Z,12.27
2022-11-12T00:24:26.689Z,13.52
2022-11-12T00:26:52.997Z,12.05
2022-11-12T00:29:19.265Z,12.13
2022-11-12T00:31:45.551Z,12.57
2022-11-12T00:34:11.812Z,13.48
2022-11-12T00:36:38.087Z,9.68
2022-11-12T00:39:04.512Z,11.65
2022-11-12T00:41:30.867Z,11.00
2022-11-12T00:43:57.173Z,10.32
2022-11-12T00:46:23.577Z,10.00
2022-11-12T00:48:49.832Z,9.80
2022-11-12T00:51:16.116Z,9.18
2022-11-12T00:53:42.378Z,10.65
2022-11-12T00:56:09.439Z,9.00
2022-11-12T00:58:36.189Z,9.20
2022-11-12T01:01:09.644Z,8.93
2022-11-12T01:03:37.052Z,9.40
2022-11-12T01:06:13.645Z,8.35
2022-11-12T01:08:40.284Z,7.93
2022-11-12T01:11:08.141Z,7.78
2022-11-12T01:13:34.582Z,7.50
2022-11-12T01:16:04.772Z,6.85
2022-11-12T01:18:31.054Z,7.03
2022-11-12T01:21:00.203Z,6.35
2022-11-12T01:23:26.496Z,6.30
2022-11-12T01:25:52.762Z,6.60
2022-11-12T01:28:19.033Z,6.97
2022-11-12T01:30:45.318Z,8.88
2022-11-12T01:33:11.596Z,7.78
2022-11-12T01:35:37.861Z,7.72
2022-11-12T01:38:04.137Z,6.47
2022-11-12T01:40:31.685Z,7.10
2022-11-12T01:42:57.969Z,9.27
2022-11-12T01:45:24.369Z,8.32
2022-11-12T01:47:51.812Z,8.50
2022-11-12T01:50:27.280Z,9.43
2022-11-12T01:52:56.695Z,9.45
2022-11-12T01:55:25.379Z,8.80
2022-11-12T01:57:52.884Z,7.68
2022-11-12T02:00:19.332Z,8.07
2022-11-12T02:02:48.081Z,8.00
2022-11-12T02:05:14.716Z,8.57
2022-11-12T02:07:42.128Z,8.35
2022-11-12T02:10:09.582Z,7.75
2022-11-12T02:12:54.645Z,7.72
2022-11-12T02:15:20.923Z,7.90
2022-11-12T02:17:47.285Z,7.65
2022-11-12T02:20:14.369Z,8.05
2022-11-12T02:22:40.660Z,7.95
2022-11-12T02:25:07.380Z,6.85
2022-11-12T02:27:34.101Z,6.63
2022-11-12T02:30:00.371Z,8.38
2022-11-12T02:32:26.670Z,7.82
2022-11-12T02:34:53.146Z,7.18
2022-11-12T02:37:19.522Z,7.80
2022-11-12T02:39:45.797Z,6.25
2022-11-12T02:42:12.072Z,6.40
2022-11-12T02:44:38.373Z,7.05
2022-11-12T02:47:04.673Z,7.22
2022-11-12T02:49:30.941Z,7.60
2022-11-12T02:51:57.266Z,7.63
2022-11-12T02:54:23.537Z,7.30
2022-11-12T02:56:49.828Z,7.85
2022-11-12T02:59:16.111Z,6.82
2022-11-12T03:01:42.401Z,6.88
2022-11-12T03:04:08.746Z,7.10
2022-11-12T03:06:35.411Z,7.32
2022-11-12T03:09:01.774Z,6.80
2022-11-12T03:11:28.050Z,7.43
2022-11-12T03:13:54.338Z,7.38
2022-11-12T03:16:20.646Z,8.10
2022-11-12T03:18:46.945Z,7.10
2022-11-12T03:21:13.226Z,6.15
2022-11-12T03:23:39.523Z,7.63
2022-11-12T03:26:05.907Z,6.07
2022-11-12T03:28:32.301Z,6.90
2022-11-12T03:30:59.671Z,6.32
2022-11-12T03:33:26.032Z,6.53
2022-11-12T03:35:52.359Z,6.78
2022-11-12T03:38:18.652Z,6.05
2022-11-12T03:40:44.934Z,6.47
2022-11-12T03:43:11.224Z,7.32
2022-11-12T03:45:37.516Z,6.20
2022-11-12T03:48:03.936Z,7.82
2022-11-12T03:50:30.859Z,7.97
2022-11-12T03:52:58.329Z,7.32
2022-11-12T03:55:25.684Z,6.53
2022-11-12T03:57:52.479Z,7.15
2022-11-12T04:00:19.526Z,6.47
2022-11-12T04:02:45.883Z,6.43
2022-11-12T04:05:30.995Z,6.85
2022-11-12T04:08:19.470Z,6.90
2022-11-12T04:10:45.809Z,8.10
2022-11-12T04:13:30.255Z,7.97
2022-11-12T04:16:18.318Z,10.32
2022-11-12T04:19:04.184Z,8.98
2022-11-12T04:21:50.598Z,7.45
2022-11-12T04:24:54.404Z,8.30
2022-11-12T04:27:22.336Z,7.53
2022-11-12T04:30:07.717Z,9.25
2022-11-12T04:32:36.306Z,8.55
2022-11-12T04:35:02.944Z,8.10
2022-11-12T04:37:30.128Z,9.00
2022-11-12T04:40:16.379Z,7.78
2022-11-12T04:43:01.457Z,7.40
2022-11-12T04:45:27.742Z,7.20
2022-11-12T04:47:54.028Z,7.45
2022-11-12T04:50:20.356Z,6.72
2022-11-12T04:52:46.641Z,7.90
2022-11-12T04:55:12.916Z,8.27
2022-11-12T04:57:39.534Z,7.68
2022-11-12T05:00:06.125Z,8.02
2022-11-12T05:02:32.426Z,7.70
2022-11-12T05:04:58.707Z,8.02
2022-11-12T05:07:24.990Z,8.15
2022-11-12T05:09:51.309Z,8.82
2022-11-12T05:12:17.644Z,8.63
2022-11-12T05:14:43.916Z,7.97
2022-11-12T05:17:10.197Z,8.32
2022-11-12T05:19:36.489Z,9.13
2022-11-12T05:22:05.556Z,7.43
2022-11-12T05:24:42.871Z,7.93
2022-11-12T05:27:10.797Z,8.50
2022-11-12T05:29:37.294Z,8.50
2022-11-12T05:32:03.961Z,8.63
2022-11-12T05:34:30.307Z,9.13
2022-11-12T05:36:56.909Z,8.25
2022-11-12T05:39:23.341Z,7.32
2022-11-12T05:42:11.269Z,9.18
2022-11-12T05:44:36.322Z,7.65
2022-11-12T05:47:02.634Z,9.68
2022-11-12T05:49:30.512Z,7.40
2022-11-12T05:51:56.796Z,7.63
2022-11-12T05:54:24.910Z,8.20
2022-11-12T05:56:52.272Z,8.30
2022-11-12T05:59:18.566Z,10.40
2022-11-12T06:01:44.968Z,8.80
2022-11-12T06:04:12.065Z,8.02
2022-11-12T06:06:38.844Z,8.27
2022-11-12T06:09:05.479Z,7.72
2022-11-12T06:11:32.263Z,6.80
2022-11-12T06:13:58.726Z,8.23
2022-11-12T06:16:25.010Z,6.57
2022-11-12T06:18:51.341Z,6.72
2022-11-12T06:21:21.955Z,6.75
2022-11-12T06:26:14.436Z,6.70
2022-11-12T06:28:40.804Z,7.22
2022-11-12T06:31:07.347Z,7.78
2022-11-12T06:33:33.630Z,7.95
2022-11-12T06:36:02.918Z,7.80
2022-11-12T06:38:33.297Z,7.47
2022-11-12T06:40:59.673Z,9.30
2022-11-12T06:43:27.530Z,8.32
2022-11-12T06:45:53.796Z,7.63
2022-11-12T06:48:20.079Z,7.43
2022-11-12T06:50:46.462Z,7.22
2022-11-12T06:53:12.809Z,8.25
2022-11-12T06:55:39.164Z,7.10
2022-11-12T06:58:05.444Z,7.28
2022-11-12T07:00:31.720Z,6.43
2022-11-12T07:02:58.076Z,7.13
2022-11-12T07:05:24.361Z,7.25
2022-11-12T07:07:50.638Z,7.90
2022-11-12T07:10:16.987Z,7.15
2022-11-12T07:12:43.461Z,6.60
2022-11-12T07:15:10.064Z,8.77
2022-11-12T07:17:36.564Z,8.98
2022-11-12T07:20:05.105Z,7.55
2022-11-12T07:22:32.784Z,6.68
2022-11-12T07:24:59.054Z,7.43
2022-11-12T07:27:25.389Z,8.35
2022-11-12T07:29:51.643Z,7.88
2022-11-12T07:32:17.974Z,7.20
2022-11-12T07:34:44.263Z,7.25
2022-11-12T07:37:10.549Z,6.65
2022-11-12T07:39:36.885Z,6.43
2022-11-12T07:42:03.342Z,7.43
2022-11-12T07:44:29.609Z,7.65
2022-11-12T07:46:55.899Z,5.50
2022-11-12T07:49:22.162Z,6.10
2022-11-12T07:51:48.445Z,5.82
2022-11-12T07:54:14.768Z,7.47
2022-11-12T07:56:41.046Z,6.68
2022-11-12T07:59:07.829Z,6.53
2022-11-12T08:01:41.410Z,5.60
2022-11-12T08:04:09.317Z,7.07
2022-11-12T08:06:36.054Z,6.53
2022-11-12T08:09:04.636Z,6.05
2022-11-12T08:11:31.148Z,6.05
2022-11-12T08:13:57.669Z,7.20
2022-11-12T08:16:24.058Z,6.93
2022-11-12T08:18:50.638Z,6.28
2022-11-12T08:21:17.481Z,6.57
2022-11-12T08:23:43.985Z,5.55
2022-11-12T08:26:14.158Z,6.22
2022-11-12T08:28:40.894Z,6.80
2022-11-12T08:31:11.666Z,7.13
2022-11-12T08:33:38.357Z,7.57
2022-11-12T08:36:05.334Z,9.00
2022-11-12T08:38:32.744Z,8.38
2022-11-12T08:41:02.861Z,7.85
2022-11-12T08:43:29.366Z,7.30
2022-11-12T08:45:57.434Z,7.28
2022-11-12T08:48:23.856Z,8.85
2022-11-12T08:50:50.257Z,7.25
2022-11-12T08:53:16.547Z,6.65
2022-11-12T08:55:43.082Z,7.38
2022-11-12T08:58:10.809Z,7.28
2022-11-12T09:00:39.302Z,7.80
2022-11-12T09:03:06.363Z,7.20
2022-11-12T09:05:36.173Z,7.93
2022-11-12T09:08:04.159Z,7.80
2022-11-12T09:10:30.536Z,7.22
2022-11-12T09:12:56.860Z,8.52
2022-11-12T09:15:36.922Z,8.18
2022-11-12T09:18:05.603Z,8.32
2022-11-12T09:20:32.138Z,7.80
2022-11-12T09:22:59.810Z,9.25
2022-11-12T09:25:26.072Z,9.27
2022-11-12T09:27:52.339Z,8.00
2022-11-12T09:30:18.738Z,8.88
2022-11-12T09:32:45.013Z,8.30
2022-11-12T09:35:11.509Z,8.90
2022-11-12T09:37:38.410Z,8.43
2022-11-12T09:40:10.989Z,7.85
2022-11-12T09:42:37.270Z,8.02
2022-11-12T09:45:26.633Z,8.88
2022-11-12T09:47:56.356Z,9.98
2022-11-12T09:50:25.892Z,9.27
2022-11-12T09:52:55.965Z,8.50
2022-11-12T09:55:34.743Z,9.60
2022-11-12T09:58:01.080Z,8.57
2022-11-12T10:00:27.445Z,7.97
2022-11-12T10:02:59.079Z,8.05
2022-11-12T10:05:25.339Z,9.65
2022-11-12T10:08:10.028Z,8.32
2022-11-12T10:10:41.767Z,8.32
2022-11-12T10:13:14.180Z,7.57
2022-11-12T10:16:02.408Z,8.40
2022-11-12T10:18:32.904Z,7.38
2022-11-12T10:21:03.177Z,8.00
2022-11-12T10:25:57.572Z,7.53
2022-11-12T10:28:30.177Z,7.45
2022-11-12T10:31:05.790Z,7.35
2022-11-12T10:33:32.244Z,7.50
2022-11-12T10:36:21.605Z,7.47
2022-11-12T10:38:49.809Z,7.10
2022-11-12T10:41:34.547Z,7.78
2022-11-12T10:44:04.887Z,8.00
2022-11-12T10:46:32.557Z,7.05
2022-11-12T10:49:03.165Z,7.68
2022-11-12T10:51:32.169Z,6.93
2022-11-12T10:53:58.597Z,7.22
2022-11-12T10:56:25.545Z,7.13
2022-11-12T10:59:11.200Z,7.75
2022-11-12T11:01:41.600Z,7.72
2022-11-12T11:04:29.440Z,7.13
2022-11-12T11:07:19.140Z,7.10
2022-11-12T11:09:55.205Z,7.05
2022-11-12T11:12:28.478Z,8.55
2022-11-12T11:15:12.787Z,7.40
2022-11-12T11:17:39.090Z,9.30
2022-11-12T11:20:11.042Z,7.63
2022-11-12T11:22:41.718Z,7.53
2022-11-12T11:25:13.812Z,8.55
2022-11-12T11:27:45.834Z,7.45
2022-11-12T11:30:13.279Z,7.78
2022-11-12T11:32:58.056Z,6.70
2022-11-12T11:35:44.735Z,6.93
2022-11-12T11:38:22.987Z,6.15
2022-11-12T11:41:04.649Z,6.55
2022-11-12T11:43:38.946Z,6.85
2022-11-12T11:46:20.383Z,5.80
2022-11-12T11:48:56.912Z,7.43
2022-11-12T11:51:26.018Z,6.38
2022-11-12T11:53:55.329Z,5.95
2022-11-12T11:56:21.566Z,6.82
2022-11-12T11:58:50.978Z,5.40
2022-11-12T12:01:20.268Z,5.00
2022-11-12T12:04:22.116Z,4.90
2022-11-12T12:06:57.492Z,5.45
2022-11-12T12:09:29.642Z,7.15
2022-11-12T12:11:55.894Z,6.30
2022-11-12T12:14:34.240Z,5.65
2022-11-12T12:17:19.464Z,5.97
2022-11-12T12:19:58.065Z,6.38
2022-11-12T12:22:29.842Z,4.53
2022-11-12T12:24:58.447Z,4.25
2022-11-12T12:27:30.619Z,3.47
2022-11-12T12:30:17.142Z,3.63
2022-11-12T12:32:46.098Z,3.42
2022-11-12T12:35:30.968Z,3.17
2022-11-12T12:38:10.254Z,3.35
2022-11-12T12:40:44.105Z,3.05
2022-11-12T12:43:30.645Z,3.78
2022-11-12T12:45:57.504Z,3.30
2022-11-12T12:48:31.168Z,4.43
2022-11-12T12:50:57.737Z,3.47
2022-11-12T12:53:26.790Z,4.20
2022-11-12T12:56:00.363Z,3.72
2022-11-12T12:58:32.537Z,4.43
2022-11-12T13:01:09.264Z,4.05
2022-11-12T13:03:44.620Z,4.50
2022-11-12T13:06:23.379Z,5.18
2022-11-12T13:08:55.760Z,5.10
2022-11-12T13:12:00.104Z,4.38
2022-11-12T13:14:35.290Z,4.53
2022-11-12T13:17:16.608Z,4.70
2022-11-12T13:19:55.079Z,4.97
2022-11-12T13:22:24.452Z,4.85
2022-11-12T13:24:59.821Z,7.00
2022-11-12T13:27:44.524Z,5.88
2022-11-12T13:30:13.882Z,4.90
2022-11-12T13:32:46.198Z,4.75
2022-11-12T13:35:20.446Z,5.75
2022-11-12T13:37:49.536Z,6.25
2022-11-12T13:40:36.058Z,6.40
2022-11-12T13:43:11.197Z,6.47
2022-11-12T13:45:42.371Z,5.43
2022-11-12T13:48:09.252Z,4.82
2022-11-12T13:50:40.351Z,5.15
2022-11-12T13:53:08.690Z,4.88
2022-11-12T13:55:34.954Z,4.13
2022-11-12T13:58:01.232Z,4.43
2022-11-12T14:00:28.796Z,4.57
2022-11-12T14:02:59.794Z,5.63
2022-11-12T14:05:27.612Z,4.95
2022-11-12T14:08:12.180Z,4.78
2022-11-12T14:10:47.476Z,4.32
2022-11-12T14:13:25.980Z,4.80
2022-11-12T14:15:52.273Z,4.60
2022-11-12T14:18:31.234Z,4.93
2022-11-12T14:20:57.658Z,5.15
2022-11-12T14:23:26.008Z,4.40
2022-11-12T14:25:53.849Z,4.55
2022-11-12T14:28:30.969Z,6.20
2022-11-12T14:30:58.545Z,4.70
2022-11-12T14:33:28.972Z,5.72
2022-11-12T14:36:00.460Z,4.93
2022-11-12T14:38:43.930Z,5.18
2022-11-12T14:41:11.363Z,5.18
2022-11-12T14:43:41.297Z,5.00
2022-11-12T14:46:08.656Z,4.95
2022-11-12T14:48:38.153Z,6.95
2022-11-12T14:51:09.011Z,7.65
2022-11-12T14:53:39.090Z,8.48
2022-11-12T14:56:07.089Z,9.68
2022-11-12T14:58:33.765Z,9.68
2022-11-12T15:01:47.819Z,11.52
2022-11-12T15:04:12.022Z,10.38
2022-11-12T15:06:38.991Z,8.88
2022-11-12T15:09:05.638Z,7.78
2022-11-12T15:11:35.019Z,7.50
2022-11-12T15:14:03.862Z,7.15
2022-11-12T15:16:31.746Z,7.03
2022-11-12T15:19:02.478Z,7.13
2022-11-12T15:21:29.003Z,8.90
2022-11-12T15:24:15.930Z,8.07
2022-11-12T15:26:43.866Z,8.70
2022-11-12T15:29:10.146Z,7.40
2022-11-12T15:31:47.059Z,7.28
2022-11-12T15:34:21.046Z,8.00
2022-11-12T15:36:47.473Z,7.90
2022-11-12T15:39:14.160Z,7.15
2022-11-12T15:41:40.521Z,7.38
2022-11-12T15:44:08.589Z,6.20
2022-11-12T15:46:34.986Z,5.90
2022-11-12T15:49:01.273Z,6.53
2022-11-12T15:51:27.562Z,7.30
2022-11-12T15:53:53.934Z,7.72
2022-11-12T15:56:23.289Z,6.78
2022-11-12T15:58:49.677Z,6.80
2022-11-12T16:01:16.000Z,6.65
2022-11-12T16:03:42.308Z,5.38
2022-11-12T16:06:10.801Z,7.90
2022-11-12T16:08:37.228Z,6.45
2022-11-12T16:11:03.640Z,6.43
2022-11-12T16:13:31.421Z,6.45
2022-11-12T16:15:57.748Z,8.13
2022-11-12T16:18:24.096Z,8.90
2022-11-12T16:20:50.557Z,9.00
2022-11-12T16:23:16.913Z,10.75
2022-11-12T16:25:43.965Z,7.80
2022-11-12T16:28:13.385Z,9.18
2022-11-12T16:30:39.663Z,9.27
2022-11-12T16:33:05.957Z,8.93
2022-11-12T16:35:34.510Z,8.27
2022-11-12T16:38:00.797Z,9.50
2022-11-12T16:40:28.245Z,10.60
2022-11-12T16:42:54.531Z,12.85
2022-11-12T16:45:21.988Z,11.98
2022-11-12T16:47:52.137Z,15.57
2022-11-12T16:50:21.653Z,13.48
2022-11-12T16:52:48.177Z,14.98
2022-11-12T16:55:14.498Z,12.65
2022-11-12T16:57:40.926Z,12.77
2022-11-12T17:00:07.889Z,11.63
2022-11-12T17:02:36.934Z,13.48
2022-11-12T17:05:10.171Z,11.52
2022-11-12T17:07:36.457Z,11.23
2022-11-12T17:10:02.808Z,11.68
2022-11-12T17:12:29.085Z,12.90
2022-11-12T17:14:55.407Z,14.57
2022-11-12T17:17:21.728Z,15.10
2022-11-12T17:19:48.098Z,17.35
2022-11-12T17:22:14.378Z,14.85
2022-11-12T17:24:40.676Z,16.67
2022-11-12T17:27:07.328Z,17.90
2022-11-12T17:29:33.616Z,16.67
2022-11-12T17:32:03.264Z,14.02
2022-11-12T17:34:29.946Z,15.18
2022-11-12T17:36:56.236Z,14.10
2022-11-12T17:39:22.591Z,15.90
2022-11-12T17:41:49.216Z,15.70
2022-11-12T17:44:16.695Z,16.95
2022-11-12T17:46:43.797Z,17.35
2022-11-12T17:49:10.230Z,14.10
2022-11-12T17:51:36.611Z,13.35
2022-11-12T17:54:02.916Z,12.07
2022-11-12T17:56:35.765Z,12.73
2022-11-12T17:59:03.373Z,11.55
2022-11-12T18:01:30.767Z,11.52
2022-11-12T18:03:57.917Z,10.52
2022-11-12T18:06:28.303Z,11.73
2022-11-12T18:11:21.285Z,9.95
2022-11-12T18:13:47.778Z,9.57
2022-11-12T18:16:19.188Z,11.05
2022-11-12T18:18:45.570Z,10.57
2022-11-12T18:21:12.472Z,9.77
2022-11-12T18:23:39.614Z,8.57
2022-11-12T18:26:06.475Z,9.60
2022-11-12T18:28:32.987Z,8.80
2022-11-12T18:31:03.779Z,9.82
2022-11-12T18:33:30.728Z,11.55
2022-11-12T18:36:20.877Z,9.95
2022-11-12T18:38:50.235Z,9.80
2022-11-12T18:41:17.326Z,16.10
2022-11-12T18:43:43.624Z,20.00
2022-11-12T18:46:10.500Z,15.60
2022-11-12T18:48:37.776Z,18.38
2022-11-12T18:51:07.116Z,14.25
2022-11-12T18:53:33.914Z,14.15
2022-11-12T18:56:01.509Z,14.55
2022-11-12T18:58:34.682Z,14.48
2022-11-12T19:01:08.688Z,12.93
2022-11-12T19:03:36.003Z,12.85
2022-11-12T19:06:03.513Z,13.75
2022-11-12T19:08:31.381Z,14.73
2022-11-12T19:10:58.665Z,14.50
2022-11-12T19:13:25.620Z,15.80
2022-11-12T19:15:52.445Z,14.63
2022-11-12T19:18:18.711Z,14.65
2022-11-12T19:20:45.998Z,15.82
2022-11-12T19:23:12.284Z,16.20
2022-11-12T19:25:38.619Z,16.58
2022-11-12T19:28:04.902Z,15.13
2022-11-12T19:30:31.239Z,17.90
2022-11-12T19:32:57.522Z,14.00
2022-11-12T19:35:23.902Z,15.02
2022-11-12T19:37:50.178Z,15.75
2022-11-12T19:40:16.704Z,14.82
2022-11-12T19:42:42.991Z,16.33
2022-11-12T19:45:09.458Z,17.48
2022-11-12T19:47:35.738Z,20.00
2022-11-12T19:50:02.026Z,17.38
2022-11-12T19:52:28.351Z,19.67
2022-11-12T19:54:54.727Z,17.83
2022-11-12T19:57:21.490Z,16.65
2022-11-12T19:59:47.811Z,21.52
2022-11-12T20:02:14.088Z,21.67
2022-11-12T20:04:40.370Z,21.70
2022-11-12T20:07:07.487Z,19.88
2022-11-12T20:09:34.137Z,20.95
2022-11-12T20:12:00.409Z,20.08
2022-11-12T20:14:26.888Z,22.52
2022-11-12T20:16:53.178Z,21.63
2022-11-12T20:19:19.460Z,21.30
2022-11-12T20:21:45.767Z,21.42
2022-11-12T20:24:12.151Z,20.95
2022-11-12T20:26:38.430Z,20.45
2022-11-12T20:29:04.720Z,19.85
2022-11-12T20:31:31.006Z,19.27
2022-11-12T20:33:57.366Z,22.45
2022-11-12T20:36:23.962Z,19.35
2022-11-12T20:38:50.550Z,19.90
2022-11-12T20:41:18.761Z,23.23
2022-11-12T20:43:45.070Z,23.05
2022-11-12T20:46:12.072Z,23.90
2022-11-12T20:48:43.175Z,34.08
2022-11-12T20:51:26.619Z,30.48
2022-11-12T20:53:58.697Z,30.02
2022-11-12T20:56:27.048Z,26.70
2022-11-12T20:58:53.395Z,21.80
2022-11-12T21:01:21.390Z,23.52
2022-11-12T21:03:47.984Z,22.27
2022-11-12T21:06:15.743Z,25.10
2022-11-12T21:08:42.139Z,23.35
2022-11-12T21:11:10.158Z,20.67
2022-11-12T21:13:37.224Z,21.45
2022-11-12T21:16:04.138Z,20.70
2022-11-12T21:18:31.030Z,21.35
2022-11-12T21:21:01.630Z,20.85
2022-11-12T21:23:28.965Z,21.73
2022-11-12T21:25:55.253Z,22.48
2022-11-12T21:28:21.637Z,20.60
2022-11-12T21:30:47.919Z,20.63
2022-11-12T21:33:14.434Z,21.58
2022-11-12T21:35:40.757Z,18.40
2022-11-12T21:38:07.083Z,21.60
2022-11-12T21:40:33.438Z,20.58
2022-11-12T21:42:59.954Z,21.40
2022-11-12T21:45:26.236Z,19.05
2022-11-12T21:47:53.118Z,19.45
2022-11-12T21:50:19.412Z,19.50
2022-11-12T21:52:45.715Z,20.23
2022-11-12T21:55:11.997Z,24.00
2022-11-12T21:57:38.292Z,24.70
2022-11-12T22:00:34.497Z,25.67
2022-11-12T22:02:54.105Z,25.52
2022-11-12T22:05:20.499Z,25.50
2022-11-12T22:07:46.802Z,24.92
2022-11-12T22:10:13.167Z,25.77
2022-11-12T22:12:39.808Z,25.95
2022-11-12T22:15:07.435Z,23.70
2022-11-12T22:17:33.868Z,24.75
2022-11-12T22:20:00.241Z,24.27
2022-11-12T22:22:26.535Z,24.35
2022-11-12T22:24:53.914Z,26.83
2022-11-12T22:27:20.279Z,27.80
2022-11-12T22:29:47.220Z,25.40
2022-11-12T22:32:13.519Z,27.58
2022-11-12T22:34:39.797Z,27.08
2022-11-12T22:37:06.221Z,24.45
2022-11-12T22:39:32.605Z,24.42
2022-11-12T22:41:58.909Z,25.15
2022-11-12T22:44:25.201Z,24.80
2022-11-12T22:46:51.465Z,23.77
2022-11-12T22:49:17.849Z,24.30
2022-11-12T22:51:44.200Z,21.63
2022-11-12T22:54:13.171Z,20.95
2022-11-12T22:56:39.784Z,21.70
2022-11-12T22:59:06.115Z,19.45
2022-11-12T23:01:33.666Z,20.75
2022-11-12T23:04:01.087Z,16.02
2022-11-12T23:06:28.180Z,16.58
2022-11-12T23:08:54.996Z,15.13
2022-11-12T23:11:21.650Z,15.35
2022-11-12T23:13:48.247Z,14.02
2022-11-12T23:16:18.728Z,20.85
2022-11-12T23:21:12.602Z,33.30
2022-11-12T23:23:38.953Z,30.30
2022-11-12T23:26:07.036Z,23.65
2022-11-12T23:28:36.667Z,22.45
2022-11-12T23:31:04.133Z,16.30
2022-11-12T23:33:30.396Z,21.45
2022-11-12T23:36:03.839Z,20.30
2022-11-12T23:38:31.079Z,21.98
2022-11-12T23:40:57.400Z,23.55
2022-11-12T23:43:23.752Z,22.10
2022-11-12T23:45:53.159Z,22.50
2022-11-12T23:48:19.556Z,19.55
2022-11-12T23:50:46.428Z,17.85
2022-11-12T23:53:12.719Z,22.13
2022-11-12T23:55:40.377Z,19.65
2022-11-12T23:58:06.820Z,18.77
